This is the latest recevied weather packets stored in our database for station/object K4YY. If no packets are shown the sender has not sent any weather packets the latest 10 day(s).
| Time | Temp. | Humidity | Pressure | Rain* | Wind** | Luminosity | Snow |
|---|---|---|---|---|---|---|---|
| 1777518018 | 26.11° C | 50% | 1011.3 hPa | 0 mm | - | 0 W/m² | - |
| 1777514418 | 27.22° C | 43% | 1010.8 hPa | 0 mm | - | 0 W/m² | - |
| 1777509618 | 29.44° C | 44% | 1009.4 hPa | 0 mm | - | 0 W/m² | - |
| 1777509018 | 29.44° C | 45% | 1008.6 hPa | 0 mm | - | 0 W/m² | - |
| 1777508418 | 30° C | 44% | 1008.8 hPa | 0 mm | - | 0 W/m² | - |
| 1777502438 | 32.22° C | 41% | 1008.1 hPa | 0 mm | - | 190 W/m² | - |
| 1777499418 | 32.78° C | 40% | 1008.1 hPa | 0 mm | - | 244 W/m² | - |
| 1777497019 | 32.22° C | 41% | 1008.7 hPa | 0 mm | - | 246 W/m² | - |
| 1777495219 | 32.22° C | 38% | 1009 hPa | 0 mm | - | 670 W/m² | - |
| 1777494039 | 32.22° C | 38% | 1009.5 hPa | 0 mm | - | 731 W/m² | - |
| 1777492839 | 31.67° C | 44% | 1010 hPa | 0 mm | - | 786 W/m² | - |
| 1777490419 | 31.11° C | 42% | 1010.8 hPa | 0 mm | - | 888 W/m² | - |
| 1777489218 | 30.56° C | 49% | 1011.2 hPa | 0 mm | - | 444 W/m² | - |
| 1777488619 | 30.56° C | 49% | 1011.1 hPa | 0 mm | - | 273 W/m² | - |
| 1777488018 | 30.56° C | 49% | 1011.6 hPa | 0 mm | - | 978 W/m² | - |
| 1777483218 | 29.44° C | 55% | 1013.1 hPa | 0 mm | - | 678 W/m² | - |
| 1777479019 | 27.78° C | 62% | 1014 hPa | 0 mm | - | 906 W/m² | - |
| 1777476019 | 26.11° C | 67% | 1014.6 hPa | 0 mm | - | 787 W/m² | - |
| 1777474819 | 25.56° C | 71% | 1015.1 hPa | 0 mm | - | 707 W/m² | - |
| 1777474219 | 25° C | 72% | 1015.3 hPa | 0 mm | - | 823 W/m² | - |
| 1777472419 | 24.44° C | 74% | 1015.5 hPa | 0 mm | - | 173 W/m² | - |
| 1777470659 | 23.33° C | 78% | 1016.1 hPa | 0 mm | - | 248 W/m² | - |
| 1777467639 | 22.22° C | 80% | 1016.1 hPa | 0 mm | - | 196 W/m² | - |
| 1777462219 | 21.67° C | 84% | 1017.2 hPa | 0 mm | - | 22 W/m² | - |
| 1777461019 | 21.67° C | 86% | 1015.9 hPa | 0 mm | - | 10 W/m² | - |
* Rain latest hour (hover to see other rain measurements)
** Current wind speed in m/s (hover to see current wind gust speed)